createdAt,value
2018-11-14T00:01:54.770Z,27.73
2018-11-14T00:04:24.063Z,25.30
2018-11-14T00:06:53.351Z,27.40
2018-11-14T00:09:22.695Z,28.30
2018-11-14T00:11:51.984Z,24.43
2018-11-14T00:14:21.292Z,29.23
2018-11-14T00:16:50.599Z,26.20
2018-11-14T00:19:19.909Z,26.00
2018-11-14T00:21:49.206Z,24.40
2018-11-14T00:24:18.521Z,24.30
2018-11-14T00:26:47.838Z,26.83
2018-11-14T00:29:17.134Z,27.27
2018-11-14T00:31:46.438Z,35.83
2018-11-14T00:34:15.724Z,27.30
2018-11-14T00:36:45.008Z,27.87
2018-11-14T00:39:14.262Z,24.60
2018-11-14T00:41:43.612Z,27.13
2018-11-14T00:44:12.893Z,27.10
2018-11-14T00:46:42.187Z,29.60
2018-11-14T00:49:11.496Z,23.97
2018-11-14T00:51:40.799Z,25.50
2018-11-14T00:54:10.091Z,26.97
2018-11-14T00:56:39.346Z,26.03
2018-11-14T00:59:08.659Z,27.00
2018-11-14T01:01:38.006Z,25.17
2018-11-14T01:04:07.274Z,25.87
2018-11-14T01:06:36.569Z,23.73
2018-11-14T01:09:08.344Z,23.43
2018-11-14T01:11:37.664Z,23.77
2018-11-14T01:14:07.894Z,27.03
2018-11-14T01:16:37.494Z,24.83
2018-11-14T01:19:07.699Z,22.67
2018-11-14T01:21:37.079Z,22.57
2018-11-14T01:24:06.912Z,24.37
2018-11-14T01:26:36.159Z,24.10
2018-11-14T01:29:05.614Z,23.53
2018-11-14T01:31:34.881Z,23.77
2018-11-14T01:34:04.182Z,21.63
2018-11-14T01:36:33.504Z,23.93
2018-11-14T01:39:02.839Z,24.83
2018-11-14T01:41:33.144Z,25.00
2018-11-14T01:44:02.415Z,27.90
2018-11-14T01:46:31.678Z,22.33
2018-11-14T01:49:00.978Z,24.97
2018-11-14T01:51:30.255Z,21.47
2018-11-14T01:53:59.506Z,24.17
2018-11-14T01:56:28.784Z,22.10
2018-11-14T01:58:58.060Z,24.83
2018-11-14T02:01:27.365Z,22.57
2018-11-14T02:03:56.674Z,22.03
2018-11-14T02:06:25.945Z,23.23
2018-11-14T02:08:55.228Z,20.80
2018-11-14T02:11:24.503Z,22.83
2018-11-14T02:13:53.799Z,20.33
2018-11-14T02:16:23.118Z,22.83
2018-11-14T02:18:52.467Z,21.33
2018-11-14T02:21:21.770Z,20.23
2018-11-14T02:23:51.100Z,21.77
2018-11-14T02:26:20.382Z,21.93
2018-11-14T02:28:51.343Z,24.00
2018-11-14T02:31:20.715Z,22.90
2018-11-14T02:33:50.072Z,24.10
2018-11-14T02:36:19.390Z,25.17
2018-11-14T02:38:48.654Z,20.57
2018-11-14T02:41:17.967Z,23.57
2018-11-14T02:43:47.250Z,21.30
2018-11-14T02:46:16.543Z,21.30
2018-11-14T02:48:45.810Z,20.40
2018-11-14T02:51:27.448Z,20.27
2018-11-14T02:53:56.788Z,21.47
2018-11-14T02:56:26.097Z,23.17
2018-11-14T02:58:55.374Z,21.43
2018-11-14T03:01:24.626Z,20.20
2018-11-14T03:03:53.859Z,19.97
2018-11-14T03:06:23.123Z,22.43
2018-11-14T03:08:52.371Z,22.13
2018-11-14T03:11:21.647Z,20.20
2018-11-14T03:13:50.956Z,19.47
2018-11-14T03:16:20.298Z,18.70
2018-11-14T03:18:49.531Z,20.53
2018-11-14T03:21:18.791Z,18.00
2018-11-14T03:23:48.052Z,23.53
2018-11-14T03:26:17.311Z,19.43
2018-11-14T03:28:46.612Z,20.57
2018-11-14T03:31:15.891Z,21.83
2018-11-14T03:33:45.207Z,19.87
2018-11-14T03:36:16.695Z,19.97
2018-11-14T03:38:46.186Z,21.73
2018-11-14T03:41:15.475Z,19.43
2018-11-14T03:43:44.979Z,19.27
2018-11-14T03:46:15.439Z,20.03
2018-11-14T03:48:45.464Z,19.17
2018-11-14T03:51:14.821Z,21.03
2018-11-14T03:53:44.226Z,17.80
2018-11-14T03:56:13.592Z,18.00
2018-11-14T03:58:42.861Z,17.73
2018-11-14T04:01:12.150Z,18.27
2018-11-14T04:03:41.675Z,19.60
2018-11-14T04:06:11.047Z,21.17
2018-11-14T04:08:40.320Z,20.97
2018-11-14T04:11:10.317Z,18.60
2018-11-14T04:13:39.706Z,19.13
2018-11-14T04:16:09.157Z,16.87
2018-11-14T04:18:38.582Z,20.67
2018-11-14T04:21:07.870Z,18.27
2018-11-14T04:23:41.654Z,18.90
2018-11-14T04:26:10.965Z,20.90
2018-11-14T04:28:40.244Z,18.50
2018-11-14T04:31:09.563Z,18.73
2018-11-14T04:33:38.834Z,18.63
2018-11-14T04:36:08.096Z,18.77
2018-11-14T04:38:37.364Z,19.40
2018-11-14T04:41:06.680Z,21.93
2018-11-14T04:43:36.040Z,17.63
2018-11-14T04:46:05.376Z,17.97
2018-11-14T04:48:34.659Z,17.73
2018-11-14T04:51:03.935Z,18.70
2018-11-14T04:53:33.183Z,18.03
2018-11-14T04:56:02.496Z,18.37
2018-11-14T04:58:32.133Z,16.37
2018-11-14T05:01:01.431Z,21.30
2018-11-14T05:03:30.748Z,19.10
2018-11-14T05:06:00.135Z,19.93
2018-11-14T05:08:29.381Z,19.90
2018-11-14T05:10:58.692Z,18.13
2018-11-14T05:13:28.022Z,16.47
2018-11-14T05:15:57.324Z,18.57
2018-11-14T05:18:26.702Z,18.63
2018-11-14T05:20:55.991Z,22.80
2018-11-14T05:23:25.419Z,21.13
2018-11-14T05:25:54.698Z,24.00
2018-11-14T05:28:23.971Z,24.97
2018-11-14T05:30:53.282Z,22.73
2018-11-14T05:33:22.592Z,25.47
2018-11-14T05:35:51.889Z,27.13
2018-11-14T05:38:21.183Z,26.20
2018-11-14T05:40:50.502Z,26.20
2018-11-14T05:43:19.780Z,26.80
2018-11-14T05:45:49.067Z,28.87
2018-11-14T05:48:18.346Z,23.80
2018-11-14T05:50:47.612Z,25.00
2018-11-14T05:53:16.861Z,29.13
2018-11-14T05:55:46.127Z,26.43
2018-11-14T05:58:15.431Z,25.00
2018-11-14T06:00:44.734Z,25.20
2018-11-14T06:03:14.030Z,24.40
2018-11-14T06:05:43.339Z,24.13
2018-11-14T06:08:12.609Z,26.33
2018-11-14T06:10:41.907Z,24.17
2018-11-14T06:13:11.296Z,23.93
2018-11-14T06:15:40.617Z,26.93
2018-11-14T06:18:09.947Z,23.10
2018-11-14T06:20:39.230Z,23.37
2018-11-14T06:23:08.536Z,24.77
2018-11-14T06:25:38.781Z,23.03
2018-11-14T06:28:09.310Z,28.17
2018-11-14T06:30:39.652Z,26.37
2018-11-14T06:33:09.890Z,25.33
2018-11-14T06:35:39.200Z,26.47
2018-11-14T06:38:08.541Z,22.60
2018-11-14T06:40:37.884Z,25.63
2018-11-14T06:43:07.290Z,24.87
2018-11-14T06:45:36.749Z,23.87
2018-11-14T06:48:06.247Z,26.90
2018-11-14T06:50:35.528Z,26.33
2018-11-14T06:53:06.221Z,26.27
2018-11-14T06:55:35.555Z,23.03
2018-11-14T06:58:04.888Z,24.53
2018-11-14T07:00:35.745Z,24.33
2018-11-14T07:03:06.362Z,25.87
2018-11-14T07:05:35.889Z,26.93
2018-11-14T07:08:05.310Z,25.87
2018-11-14T07:10:35.926Z,26.37
2018-11-14T07:13:13.531Z,23.97
2018-11-14T07:15:43.330Z,24.37
2018-11-14T07:18:13.128Z,27.57
2018-11-14T07:20:43.648Z,23.70
2018-11-14T07:23:12.969Z,25.73
2018-11-14T07:25:42.294Z,25.47
2018-11-14T07:28:11.550Z,24.27
2018-11-14T07:30:40.852Z,25.67
2018-11-14T07:33:11.062Z,23.47
2018-11-14T07:35:40.362Z,27.77
2018-11-14T07:38:29.627Z,28.47
2018-11-14T07:40:59.370Z,24.30
2018-11-14T07:43:28.669Z,22.03
2018-11-14T07:45:57.963Z,26.53
2018-11-14T07:48:27.244Z,26.90
2018-11-14T07:50:56.576Z,29.70
2018-11-14T07:53:25.888Z,30.03
2018-11-14T07:55:55.539Z,50.93
2018-11-14T07:58:24.815Z,85.40
2018-11-14T08:00:55.014Z,41.37
2018-11-14T08:03:24.303Z,61.83
2018-11-14T08:05:53.868Z,57.90
2018-11-14T08:08:23.228Z,53.10
2018-11-14T08:10:52.558Z,39.40
2018-11-14T08:13:24.830Z,43.00
2018-11-14T08:15:55.682Z,47.77
2018-11-14T08:18:25.294Z,47.60
2018-11-14T08:20:54.735Z,54.10
2018-11-14T08:23:24.024Z,72.03
2018-11-14T08:25:53.423Z,67.93
2018-11-14T08:28:22.746Z,66.93
2018-11-14T08:30:52.067Z,64.00
2018-11-14T08:33:21.344Z,71.20
2018-11-14T08:35:50.627Z,75.07
2018-11-14T08:38:19.940Z,76.33
2018-11-14T08:40:49.201Z,68.40
2018-11-14T08:43:18.507Z,65.37
2018-11-14T08:45:47.786Z,65.37
2018-11-14T08:48:17.048Z,69.77
2018-11-14T08:50:46.304Z,59.97
2018-11-14T08:53:15.644Z,64.60
2018-11-14T09:42:14.061Z,246.13
2018-11-14T09:44:43.559Z,79.33
2018-11-14T09:47:59.165Z,77.70
2018-11-14T11:48:20.916Z,63.67
2018-11-14T11:50:50.971Z,65.97
2018-11-14T11:53:21.989Z,74.77
2018-11-14T11:55:52.158Z,61.37
2018-11-14T11:58:22.818Z,54.83
2018-11-14T12:00:54.051Z,55.33
2018-11-14T12:03:25.779Z,62.67
2018-11-14T12:05:56.910Z,67.80
2018-11-14T12:08:27.704Z,65.53
2018-11-14T12:10:58.518Z,68.50
2018-11-14T12:13:40.389Z,74.77
2018-11-14T12:16:11.075Z,67.07
2018-11-14T12:18:42.247Z,71.20
2018-11-14T12:21:13.278Z,76.73
2018-11-14T12:23:44.015Z,68.80
2018-11-14T12:26:14.639Z,66.67
2018-11-14T12:28:45.695Z,77.87
2018-11-14T12:31:16.528Z,73.00
2018-11-14T12:33:47.631Z,79.37
2018-11-14T12:36:18.599Z,70.40
2018-11-14T12:38:49.589Z,65.53
2018-11-14T12:41:21.378Z,90.03
2018-11-14T12:43:52.244Z,97.30
2018-11-14T12:46:23.535Z,98.67
2018-11-14T12:48:54.273Z,85.23
2018-11-14T12:51:25.018Z,86.17
2018-11-14T12:53:56.168Z,87.53
2018-11-14T12:56:27.226Z,84.83
2018-11-14T12:59:11.822Z,76.03
2018-11-14T13:01:42.723Z,92.33
2018-11-14T13:04:14.008Z,81.87
2018-11-14T13:06:45.006Z,83.47
2018-11-14T13:09:16.530Z,82.73
2018-11-14T13:11:48.954Z,94.13
2018-11-14T13:14:20.534Z,79.13
2018-11-14T13:16:52.195Z,77.63
2018-11-14T13:19:23.794Z,76.00
2018-11-14T13:21:54.937Z,72.87
2018-11-14T13:24:26.627Z,72.83
2018-11-14T13:26:57.734Z,78.27
2018-11-14T13:29:30.161Z,73.70
2018-11-14T13:32:01.002Z,69.30
2018-11-14T13:34:33.146Z,72.97
2018-11-14T13:37:04.586Z,87.57
2018-11-14T13:39:36.627Z,81.47
2018-11-14T13:42:08.461Z,78.50
2018-11-14T13:44:39.950Z,87.93
2018-11-14T13:47:10.991Z,84.00
2018-11-14T13:49:42.092Z,87.33
2018-11-14T13:52:13.090Z,78.90
2018-11-14T13:54:44.276Z,80.27
2018-11-14T13:57:15.350Z,80.10
2018-11-14T13:59:46.486Z,73.93
2018-11-14T14:02:18.218Z,75.73
2018-11-14T14:04:49.101Z,82.07
2018-11-14T14:07:20.010Z,85.80
2018-11-14T14:09:50.783Z,86.27
2018-11-14T14:12:21.621Z,84.63
2018-11-14T14:14:52.371Z,80.33
2018-11-14T14:17:23.120Z,78.57
2018-11-14T14:19:55.122Z,80.13
2018-11-14T14:22:25.972Z,73.47
2018-11-14T14:24:58.333Z,76.63
2018-11-14T14:27:29.070Z,74.53
2018-11-14T14:29:58.534Z,79.97
2018-11-14T14:32:28.276Z,70.57
2018-11-14T14:34:57.791Z,76.77
2018-11-14T14:37:27.209Z,75.50
2018-11-14T14:39:56.859Z,75.20
2018-11-14T14:42:26.315Z,80.67
2018-11-14T14:44:55.892Z,73.23
2018-11-14T14:47:25.403Z,75.17
2018-11-14T14:49:54.986Z,68.47
2018-11-14T14:52:24.407Z,76.87
2018-11-14T14:54:53.805Z,73.63
2018-11-14T14:57:23.243Z,85.57
2018-11-14T14:59:52.645Z,79.77
2018-11-14T15:02:22.195Z,78.07
2018-11-14T15:04:51.702Z,78.50
2018-11-14T15:07:21.239Z,82.50
2018-11-14T15:09:50.610Z,78.70
2018-11-14T15:12:20.214Z,82.13
2018-11-14T15:14:49.755Z,81.20
2018-11-14T15:17:19.261Z,79.97
2018-11-14T15:19:48.681Z,85.57
2018-11-14T15:22:18.202Z,85.17
2018-11-14T15:24:47.961Z,88.67
2018-11-14T15:27:17.396Z,77.20
2018-11-14T15:29:46.944Z,77.50
2018-11-14T15:32:16.458Z,75.90
2018-11-14T15:34:45.954Z,81.93
2018-11-14T15:37:15.468Z,81.80
2018-11-14T15:39:44.971Z,84.07
2018-11-14T15:42:14.601Z,91.23
2018-11-14T15:44:44.052Z,84.07
2018-11-14T15:47:13.675Z,88.87
2018-11-14T15:49:43.321Z,79.73
2018-11-14T15:52:12.821Z,85.17
2018-11-14T15:54:42.238Z,90.47
2018-11-14T15:57:12.432Z,82.50
2018-11-14T15:59:41.852Z,84.97
2018-11-14T16:02:11.282Z,77.07
2018-11-14T16:04:40.940Z,93.60
2018-11-14T16:07:10.468Z,97.37
2018-11-14T16:09:39.870Z,88.10
2018-11-14T16:12:09.281Z,105.50
2018-11-14T16:14:43.396Z,106.17
2018-11-14T16:17:13.067Z,104.20
2018-11-14T16:19:42.624Z,102.37
2018-11-14T16:22:12.279Z,113.00
2018-11-14T16:24:41.824Z,106.73
2018-11-14T16:27:11.223Z,96.43
2018-11-14T16:29:40.720Z,105.53
2018-11-14T16:32:10.144Z,103.97
2018-11-14T16:34:39.681Z,104.53
2018-11-14T16:37:09.402Z,104.20
2018-11-14T16:39:38.803Z,93.57
2018-11-14T16:42:08.411Z,100.47
2018-11-14T16:44:38.024Z,105.10
2018-11-14T16:47:07.819Z,101.63
2018-11-14T16:49:37.541Z,107.63
2018-11-14T16:52:07.375Z,119.03
2018-11-14T16:54:36.854Z,123.10
2018-11-14T16:57:06.307Z,148.13
2018-11-14T16:59:35.790Z,116.97
2018-11-14T17:02:05.354Z,100.90
2018-11-14T17:04:34.867Z,98.63
2018-11-14T17:07:04.702Z,95.30
2018-11-14T17:09:34.396Z,96.50
2018-11-14T17:12:03.925Z,94.03
2018-11-14T17:14:33.751Z,104.70
2018-11-14T17:17:03.220Z,109.10
2018-11-14T17:19:32.750Z,116.67
2018-11-14T17:22:02.162Z,109.33
2018-11-14T17:24:31.637Z,110.87
2018-11-14T17:27:01.081Z,92.77
2018-11-14T17:29:30.631Z,98.70
2018-11-14T17:32:00.120Z,107.30
2018-11-14T17:34:29.783Z,107.77
2018-11-14T17:36:59.245Z,102.47
2018-11-14T17:39:28.748Z,106.43
2018-11-14T17:41:59.092Z,122.47
2018-11-14T17:44:28.474Z,107.77
2018-11-14T17:46:58.023Z,102.63
2018-11-14T17:49:27.486Z,99.43
2018-11-14T17:51:57.280Z,122.63
2018-11-14T17:54:26.738Z,120.33
2018-11-14T17:56:56.139Z,120.97
2018-11-14T17:59:25.603Z,115.43
2018-11-14T18:01:55.115Z,100.57
2018-11-14T18:04:24.651Z,106.63
2018-11-14T18:06:54.174Z,107.20
2018-11-14T18:09:23.733Z,110.77
2018-11-14T18:11:53.258Z,122.47
2018-11-14T18:14:22.784Z,106.73
2018-11-14T18:16:52.238Z,99.53
2018-11-14T18:19:21.743Z,103.73
2018-11-14T18:21:51.242Z,107.53
2018-11-14T18:24:20.679Z,100.77
2018-11-14T18:26:50.150Z,146.63
2018-11-14T18:29:19.746Z,96.83
2018-11-14T18:31:49.277Z,116.77
2018-11-14T18:34:18.803Z,106.17
2018-11-14T18:36:48.142Z,89.00
2018-11-14T18:39:17.766Z,88.67
2018-11-14T18:41:47.294Z,102.63
2018-11-14T18:44:16.815Z,119.87
2018-11-14T18:46:46.179Z,97.20
2018-11-14T18:49:15.795Z,90.77
2018-11-14T18:51:45.290Z,112.93
2018-11-14T18:54:14.939Z,112.80
2018-11-14T18:56:45.139Z,88.10
2018-11-14T18:59:14.633Z,90.47
2018-11-14T19:01:44.085Z,86.23
2018-11-14T19:04:13.527Z,111.27
2018-11-14T19:06:43.106Z,74.50
2018-11-14T19:09:12.595Z,59.77
2018-11-14T19:11:42.143Z,87.10
2018-11-14T19:14:11.651Z,82.83
2018-11-14T19:16:41.196Z,95.03
2018-11-14T19:19:11.042Z,110.67
2018-11-14T19:21:40.676Z,100.90
2018-11-14T19:24:10.226Z,122.73
2018-11-14T19:26:39.742Z,86.60
2018-11-14T19:29:09.164Z,89.23
2018-11-14T19:31:38.798Z,66.13
2018-11-14T19:34:08.698Z,78.30
2018-11-14T19:36:38.327Z,93.47
2018-11-14T19:39:11.156Z,87.60
2018-11-14T19:41:41.028Z,69.27
2018-11-14T19:44:10.541Z,73.33
2018-11-14T19:46:41.174Z,93.07
2018-11-14T19:49:10.757Z,197.03
2018-11-14T19:51:40.403Z,205.37
2018-11-14T19:54:09.966Z,141.53
2018-11-14T19:56:39.504Z,122.93
2018-11-14T19:59:09.927Z,184.50
2018-11-14T20:01:39.354Z,80.77
2018-11-14T20:04:08.904Z,89.77
2018-11-14T20:06:38.406Z,84.17
2018-11-14T20:09:13.378Z,82.00
2018-11-14T20:11:42.995Z,67.67
2018-11-14T20:14:12.379Z,88.07
2018-11-14T20:16:41.889Z,75.07
2018-11-14T20:19:11.442Z,111.73
2018-11-14T20:21:40.902Z,90.67
2018-11-14T20:24:10.397Z,81.70
2018-11-14T20:26:40.085Z,82.60
2018-11-14T20:29:09.787Z,100.07
2018-11-14T20:31:39.399Z,91.67
2018-11-14T20:34:08.842Z,109.00
2018-11-14T20:36:38.240Z,105.03
2018-11-14T20:39:11.598Z,108.60
2018-11-14T20:41:41.151Z,127.80
2018-11-14T20:44:10.703Z,126.97
2018-11-14T20:46:40.342Z,156.67
2018-11-14T20:49:09.751Z,305.43
2018-11-14T20:51:39.270Z,402.23
2018-11-14T20:54:08.865Z,378.07
2018-11-14T20:56:38.391Z,222.33
2018-11-14T20:59:07.577Z,178.87
2018-11-14T21:01:37.058Z,172.90
2018-11-14T21:04:06.619Z,164.67
2018-11-14T21:06:36.241Z,163.80
2018-11-14T21:09:09.135Z,168.93
2018-11-14T21:11:38.743Z,184.83
2018-11-14T21:14:08.368Z,164.47
2018-11-14T21:16:37.796Z,159.30
2018-11-14T21:19:07.338Z,224.27
2018-11-14T21:21:36.854Z,265.40
2018-11-14T21:24:06.485Z,210.73
2018-11-14T21:26:36.155Z,236.67
2018-11-14T21:29:05.802Z,237.43
2018-11-14T21:31:35.299Z,206.00
2018-11-14T21:34:04.986Z,149.17
2018-11-14T21:36:34.490Z,149.50
2018-11-14T21:39:05.384Z,146.37
2018-11-14T21:41:34.835Z,173.40
2018-11-14T21:44:04.541Z,136.03
2018-11-14T21:46:33.973Z,142.17
2018-11-14T21:49:04.402Z,150.90
2018-11-14T21:51:33.799Z,159.20
2018-11-14T21:54:04.395Z,136.87
2018-11-14T21:56:33.839Z,151.70
2018-11-14T21:59:03.278Z,138.00
2018-11-14T22:01:32.823Z,122.57
2018-11-14T22:04:02.446Z,131.93
2018-11-14T22:06:31.966Z,144.70
2018-11-14T22:09:01.481Z,146.90
2018-11-14T22:11:31.146Z,132.97
2018-11-14T22:14:00.670Z,138.83
2018-11-14T22:16:30.183Z,137.00
2018-11-14T22:18:59.542Z,136.60
2018-11-14T22:21:29.162Z,155.13
2018-11-14T22:23:58.693Z,164.77
2018-11-14T22:26:28.183Z,228.97
2018-11-14T22:28:57.616Z,146.43
2018-11-14T22:31:27.821Z,145.20
2018-11-14T22:33:57.342Z,135.83
2018-11-14T22:36:27.119Z,117.50
2018-11-14T22:38:56.535Z,129.03
2018-11-14T22:41:26.047Z,115.63
2018-11-14T22:43:55.522Z,128.60
2018-11-14T22:46:25.110Z,127.20
2018-11-14T22:48:54.545Z,147.33
2018-11-14T22:51:24.046Z,145.90
2018-11-14T22:53:53.634Z,112.97
2018-11-14T22:56:23.267Z,138.50
2018-11-14T22:58:52.666Z,132.33
2018-11-14T23:01:22.130Z,141.90
2018-11-14T23:03:51.643Z,144.77
2018-11-14T23:06:21.146Z,166.63
2018-11-14T23:08:50.695Z,151.37
2018-11-14T23:11:20.136Z,154.77
2018-11-14T23:13:49.768Z,138.33
2018-11-14T23:16:19.307Z,188.67
2018-11-14T23:18:48.828Z,135.33
2018-11-14T23:21:18.383Z,137.57
2018-11-14T23:23:47.828Z,155.40
2018-11-14T23:26:17.323Z,155.20
2018-11-14T23:28:46.725Z,212.43
2018-11-14T23:31:16.195Z,224.13
2018-11-14T23:33:45.803Z,125.50
2018-11-14T23:36:15.347Z,128.07
2018-11-14T23:38:44.815Z,221.80
2018-11-14T23:41:14.406Z,179.40
2018-11-14T23:43:43.951Z,177.70
2018-11-14T23:46:13.446Z,183.03
2018-11-14T23:48:42.923Z,214.57
2018-11-14T23:51:12.429Z,191.40
2018-11-14T23:53:41.962Z,167.20
2018-11-14T23:56:11.410Z,143.73
2018-11-14T23:58:41.046Z,179.20
